sensor_id;sensor_type;location;lat;lon;timestamp;P1;durP1;ratioP1;P2;durP2;ratioP2
50309;SDS011;36207;51.850;21.698;2022-12-18T00:04:18;61.80;;;23.60;;
50309;SDS011;36207;51.850;21.698;2022-12-18T00:06:47;53.10;;;24.00;;
50309;SDS011;36207;51.850;21.698;2022-12-18T00:09:14;52.50;;;23.60;;
50309;SDS011;36207;51.850;21.698;2022-12-18T00:11:40;57.20;;;23.70;;
50309;SDS011;36207;51.850;21.698;2022-12-18T00:14:08;53.20;;;24.00;;
50309;SDS011;36207;51.850;21.698;2022-12-18T00:16:36;54.30;;;22.80;;
50309;SDS011;36207;51.850;21.698;2022-12-18T00:19:03;51.30;;;22.30;;
50309;SDS011;36207;51.850;21.698;2022-12-18T00:21:30;52.10;;;21.70;;
50309;SDS011;36207;51.850;21.698;2022-12-18T00:23:58;50.90;;;23.00;;
50309;SDS011;36207;51.850;21.698;2022-12-18T00:26:26;50.60;;;22.90;;
50309;SDS011;36207;51.850;21.698;2022-12-18T00:29:00;50.10;;;22.20;;
50309;SDS011;36207;51.850;21.698;2022-12-18T00:31:29;55.60;;;23.00;;
50309;SDS011;36207;51.850;21.698;2022-12-18T00:33:56;53.00;;;22.80;;
50309;SDS011;36207;51.850;21.698;2022-12-18T00:36:27;51.30;;;22.90;;
50309;SDS011;36207;51.850;21.698;2022-12-18T00:38:55;50.80;;;23.30;;
50309;SDS011;36207;51.850;21.698;2022-12-18T00:41:23;52.20;;;21.90;;
50309;SDS011;36207;51.850;21.698;2022-12-18T00:44:10;53.20;;;22.70;;
50309;SDS011;36207;51.850;21.698;2022-12-18T00:46:38;50.80;;;22.50;;
50309;SDS011;36207;51.850;21.698;2022-12-18T00:49:05;47.40;;;22.60;;
50309;SDS011;36207;51.850;21.698;2022-12-18T00:51:32;54.90;;;23.00;;
50309;SDS011;36207;51.850;21.698;2022-12-18T00:53:58;47.00;;;21.80;;
50309;SDS011;36207;51.850;21.698;2022-12-18T00:56:24;50.10;;;22.40;;
50309;SDS011;36207;51.850;21.698;2022-12-18T00:58:51;51.90;;;22.90;;
50309;SDS011;36207;51.850;21.698;2022-12-18T01:01:17;48.80;;;23.20;;
50309;SDS011;36207;51.850;21.698;2022-12-18T01:03:44;46.90;;;21.20;;
50309;SDS011;36207;51.850;21.698;2022-12-18T01:06:14;42.90;;;20.60;;
50309;SDS011;36207;51.850;21.698;2022-12-18T01:08:41;46.50;;;20.70;;
50309;SDS011;36207;51.850;21.698;2022-12-18T01:11:09;44.60;;;21.60;;
50309;SDS011;36207;51.850;21.698;2022-12-18T01:13:41;45.70;;;20.30;;
50309;SDS011;36207;51.850;21.698;2022-12-18T01:16:07;49.00;;;21.30;;
50309;SDS011;36207;51.850;21.698;2022-12-18T01:18:35;44.40;;;21.80;;
50309;SDS011;36207;51.850;21.698;2022-12-18T01:21:05;47.00;;;21.00;;
50309;SDS011;36207;51.850;21.698;2022-12-18T01:23:35;44.80;;;20.10;;
50309;SDS011;36207;51.850;21.698;2022-12-18T01:26:06;47.00;;;21.30;;
50309;SDS011;36207;51.850;21.698;2022-12-18T01:28:34;44.80;;;20.60;;
50309;SDS011;36207;51.850;21.698;2022-12-18T01:31:11;43.10;;;20.40;;
50309;SDS011;36207;51.850;21.698;2022-12-18T01:33:40;48.70;;;21.50;;
50309;SDS011;36207;51.850;21.698;2022-12-18T01:36:07;46.30;;;21.50;;
50309;SDS011;36207;51.850;21.698;2022-12-18T01:38:34;43.60;;;21.40;;
50309;SDS011;36207;51.850;21.698;2022-12-18T01:41:01;46.20;;;21.90;;
50309;SDS011;36207;51.850;21.698;2022-12-18T01:46:12;45.20;;;20.80;;
50309;SDS011;36207;51.850;21.698;2022-12-18T01:48:39;38.90;;;19.90;;
50309;SDS011;36207;51.850;21.698;2022-12-18T01:51:07;43.20;;;21.50;;
50309;SDS011;36207;51.850;21.698;2022-12-18T01:53:35;43.10;;;20.50;;
50309;SDS011;36207;51.850;21.698;2022-12-18T01:56:03;46.50;;;20.10;;
50309;SDS011;36207;51.850;21.698;2022-12-18T01:58:38;50.40;;;22.30;;
50309;SDS011;36207;51.850;21.698;2022-12-18T02:01:09;43.20;;;20.80;;
50309;SDS011;36207;51.850;21.698;2022-12-18T02:03:35;45.70;;;20.90;;
50309;SDS011;36207;51.850;21.698;2022-12-18T02:06:06;46.50;;;21.50;;
50309;SDS011;36207;51.850;21.698;2022-12-18T02:08:48;43.20;;;21.20;;
50309;SDS011;36207;51.850;21.698;2022-12-18T02:11:42;46.10;;;21.70;;
50309;SDS011;36207;51.850;21.698;2022-12-18T02:17:07;45.20;;;20.80;;
50309;SDS011;36207;51.850;21.698;2022-12-18T02:27:44;41.90;;;20.40;;
50309;SDS011;36207;51.850;21.698;2022-12-18T02:30:13;43.50;;;19.80;;
50309;SDS011;36207;51.850;21.698;2022-12-18T02:32:42;43.80;;;21.20;;
50309;SDS011;36207;51.850;21.698;2022-12-18T02:35:22;47.90;;;21.20;;
50309;SDS011;36207;51.850;21.698;2022-12-18T02:37:53;46.30;;;21.00;;
50309;SDS011;36207;51.850;21.698;2022-12-18T02:40:22;43.40;;;20.60;;
50309;SDS011;36207;51.850;21.698;2022-12-18T02:42:50;42.00;;;20.10;;
50309;SDS011;36207;51.850;21.698;2022-12-18T02:45:16;47.10;;;21.60;;
50309;SDS011;36207;51.850;21.698;2022-12-18T02:47:44;44.10;;;20.60;;
50309;SDS011;36207;51.850;21.698;2022-12-18T02:50:22;44.00;;;21.30;;
50309;SDS011;36207;51.850;21.698;2022-12-18T02:58:47;43.80;;;21.70;;
50309;SDS011;36207;51.850;21.698;2022-12-18T03:01:30;40.60;;;19.70;;
50309;SDS011;36207;51.850;21.698;2022-12-18T03:04:03;41.70;;;19.70;;
50309;SDS011;36207;51.850;21.698;2022-12-18T03:06:35;36.90;;;18.70;;
50309;SDS011;36207;51.850;21.698;2022-12-18T03:09:17;42.60;;;20.20;;
50309;SDS011;36207;51.850;21.698;2022-12-18T03:11:48;43.40;;;19.50;;
50309;SDS011;36207;51.850;21.698;2022-12-18T03:14:40;40.10;;;19.00;;
50309;SDS011;36207;51.850;21.698;2022-12-18T03:17:10;36.70;;;18.20;;
50309;SDS011;36207;51.850;21.698;2022-12-18T03:19:40;41.30;;;19.00;;
50309;SDS011;36207;51.850;21.698;2022-12-18T03:22:08;41.40;;;19.70;;
50309;SDS011;36207;51.850;21.698;2022-12-18T03:24:35;37.80;;;18.10;;
50309;SDS011;36207;51.850;21.698;2022-12-18T03:27:06;38.30;;;18.50;;
50309;SDS011;36207;51.850;21.698;2022-12-18T03:29:38;37.80;;;19.10;;
50309;SDS011;36207;51.850;21.698;2022-12-18T03:32:10;43.00;;;19.80;;
50309;SDS011;36207;51.850;21.698;2022-12-18T03:34:41;45.10;;;19.30;;
50309;SDS011;36207;51.850;21.698;2022-12-18T03:37:10;43.00;;;20.10;;
50309;SDS011;36207;51.850;21.698;2022-12-18T03:39:36;41.30;;;20.40;;
50309;SDS011;36207;51.850;21.698;2022-12-18T03:42:16;40.40;;;18.30;;
50309;SDS011;36207;51.850;21.698;2022-12-18T03:50:00;38.80;;;18.70;;
50309;SDS011;36207;51.850;21.698;2022-12-18T03:52:34;40.70;;;19.50;;
50309;SDS011;36207;51.850;21.698;2022-12-18T03:55:04;40.60;;;19.50;;
50309;SDS011;36207;51.850;21.698;2022-12-18T03:57:32;40.00;;;19.90;;
50309;SDS011;36207;51.850;21.698;2022-12-18T04:00:02;39.20;;;18.50;;
50309;SDS011;36207;51.850;21.698;2022-12-18T04:02:32;40.30;;;18.70;;
50309;SDS011;36207;51.850;21.698;2022-12-18T04:05:03;43.90;;;19.50;;
50309;SDS011;36207;51.850;21.698;2022-12-18T04:07:32;42.80;;;18.60;;
50309;SDS011;36207;51.850;21.698;2022-12-18T04:09:59;40.00;;;19.00;;
50309;SDS011;36207;51.850;21.698;2022-12-18T04:12:28;41.50;;;18.90;;
50309;SDS011;36207;51.850;21.698;2022-12-18T04:14:55;40.60;;;18.50;;
50309;SDS011;36207;51.850;21.698;2022-12-18T04:17:21;39.20;;;19.00;;
50309;SDS011;36207;51.850;21.698;2022-12-18T04:19:48;39.00;;;18.20;;
50309;SDS011;36207;51.850;21.698;2022-12-18T04:22:14;43.10;;;19.70;;
50309;SDS011;36207;51.850;21.698;2022-12-18T04:24:41;42.80;;;20.00;;
50309;SDS011;36207;51.850;21.698;2022-12-18T04:27:08;41.20;;;19.60;;
50309;SDS011;36207;51.850;21.698;2022-12-18T04:29:35;40.90;;;19.20;;
50309;SDS011;36207;51.850;21.698;2022-12-18T04:32:01;42.20;;;19.00;;
50309;SDS011;36207;51.850;21.698;2022-12-18T04:34:27;41.30;;;18.50;;
50309;SDS011;36207;51.850;21.698;2022-12-18T04:36:53;38.80;;;19.10;;
50309;SDS011;36207;51.850;21.698;2022-12-18T04:39:19;39.00;;;18.40;;
50309;SDS011;36207;51.850;21.698;2022-12-18T04:41:46;34.90;;;18.60;;
50309;SDS011;36207;51.850;21.698;2022-12-18T04:44:13;40.10;;;18.40;;
50309;SDS011;36207;51.850;21.698;2022-12-18T04:46:39;37.20;;;17.60;;
50309;SDS011;36207;51.850;21.698;2022-12-18T04:49:06;38.30;;;18.40;;
50309;SDS011;36207;51.850;21.698;2022-12-18T04:51:32;38.60;;;18.10;;
50309;SDS011;36207;51.850;21.698;2022-12-18T04:53:58;38.20;;;18.40;;
50309;SDS011;36207;51.850;21.698;2022-12-18T04:56:24;37.50;;;17.80;;
50309;SDS011;36207;51.850;21.698;2022-12-18T04:58:50;34.70;;;17.50;;
50309;SDS011;36207;51.850;21.698;2022-12-18T05:01:20;38.30;;;18.50;;
50309;SDS011;36207;51.850;21.698;2022-12-18T05:03:47;39.00;;;17.50;;
50309;SDS011;36207;51.850;21.698;2022-12-18T05:06:13;36.10;;;17.00;;
50309;SDS011;36207;51.850;21.698;2022-12-18T05:08:40;38.90;;;17.60;;
50309;SDS011;36207;51.850;21.698;2022-12-18T05:11:07;36.40;;;17.60;;
50309;SDS011;36207;51.850;21.698;2022-12-18T05:13:36;37.50;;;17.30;;
50309;SDS011;36207;51.850;21.698;2022-12-18T05:16:03;35.00;;;17.00;;
50309;SDS011;36207;51.850;21.698;2022-12-18T05:18:51;35.60;;;17.20;;
50309;SDS011;36207;51.850;21.698;2022-12-18T05:21:17;33.40;;;16.00;;
50309;SDS011;36207;51.850;21.698;2022-12-18T05:23:44;32.40;;;15.60;;
50309;SDS011;36207;51.850;21.698;2022-12-18T05:26:10;33.70;;;16.70;;
50309;SDS011;36207;51.850;21.698;2022-12-18T05:28:41;38.60;;;16.70;;
50309;SDS011;36207;51.850;21.698;2022-12-18T05:31:08;35.90;;;17.20;;
50309;SDS011;36207;51.850;21.698;2022-12-18T05:33:35;36.60;;;17.50;;
50309;SDS011;36207;51.850;21.698;2022-12-18T05:36:02;36.60;;;16.50;;
50309;SDS011;36207;51.850;21.698;2022-12-18T05:38:31;33.20;;;16.20;;
50309;SDS011;36207;51.850;21.698;2022-12-18T05:40:59;34.50;;;16.10;;
50309;SDS011;36207;51.850;21.698;2022-12-18T05:43:25;36.70;;;17.00;;
50309;SDS011;36207;51.850;21.698;2022-12-18T05:45:53;34.80;;;15.80;;
50309;SDS011;36207;51.850;21.698;2022-12-18T05:48:20;37.10;;;15.30;;
50309;SDS011;36207;51.850;21.698;2022-12-18T05:50:47;33.00;;;15.90;;
50309;SDS011;36207;51.850;21.698;2022-12-18T05:53:16;29.80;;;14.90;;
50309;SDS011;36207;51.850;21.698;2022-12-18T05:55:44;32.30;;;16.20;;
50309;SDS011;36207;51.850;21.698;2022-12-18T05:58:11;38.60;;;16.30;;
50309;SDS011;36207;51.850;21.698;2022-12-18T06:00:41;32.90;;;15.80;;
50309;SDS011;36207;51.850;21.698;2022-12-18T06:03:10;35.70;;;16.20;;
50309;SDS011;36207;51.850;21.698;2022-12-18T06:05:38;33.40;;;16.30;;
50309;SDS011;36207;51.850;21.698;2022-12-18T06:08:06;33.40;;;15.30;;
50309;SDS011;36207;51.850;21.698;2022-12-18T06:10:32;34.30;;;15.30;;
50309;SDS011;36207;51.850;21.698;2022-12-18T06:12:58;39.10;;;17.80;;
50309;SDS011;36207;51.850;21.698;2022-12-18T06:15:25;30.60;;;15.00;;
50309;SDS011;36207;51.850;21.698;2022-12-18T06:17:51;31.20;;;14.50;;
50309;SDS011;36207;51.850;21.698;2022-12-18T06:20:17;30.50;;;14.30;;
50309;SDS011;36207;51.850;21.698;2022-12-18T06:22:44;32.60;;;15.40;;
50309;SDS011;36207;51.850;21.698;2022-12-18T06:25:10;28.10;;;13.60;;
50309;SDS011;36207;51.850;21.698;2022-12-18T06:27:37;30.10;;;13.60;;
50309;SDS011;36207;51.850;21.698;2022-12-18T06:30:04;25.70;;;12.90;;
50309;SDS011;36207;51.850;21.698;2022-12-18T06:32:31;29.30;;;13.90;;
50309;SDS011;36207;51.850;21.698;2022-12-18T06:34:57;26.00;;;12.20;;
50309;SDS011;36207;51.850;21.698;2022-12-18T06:37:23;25.40;;;12.70;;
50309;SDS011;36207;51.850;21.698;2022-12-18T06:39:52;24.70;;;12.60;;
50309;SDS011;36207;51.850;21.698;2022-12-18T06:42:22;22.50;;;11.40;;
50309;SDS011;36207;51.850;21.698;2022-12-18T06:44:49;27.40;;;12.80;;
50309;SDS011;36207;51.850;21.698;2022-12-18T06:47:15;27.30;;;13.30;;
50309;SDS011;36207;51.850;21.698;2022-12-18T06:49:42;26.40;;;13.20;;
50309;SDS011;36207;51.850;21.698;2022-12-18T06:52:09;25.10;;;12.60;;
50309;SDS011;36207;51.850;21.698;2022-12-18T06:54:35;26.00;;;12.80;;
50309;SDS011;36207;51.850;21.698;2022-12-18T06:57:01;27.10;;;12.60;;
50309;SDS011;36207;51.850;21.698;2022-12-18T06:59:27;27.90;;;13.40;;
50309;SDS011;36207;51.850;21.698;2022-12-18T07:01:53;25.30;;;12.60;;
50309;SDS011;36207;51.850;21.698;2022-12-18T07:04:19;27.80;;;13.30;;
50309;SDS011;36207;51.850;21.698;2022-12-18T07:06:46;29.10;;;13.90;;
50309;SDS011;36207;51.850;21.698;2022-12-18T07:09:12;27.00;;;12.30;;
50309;SDS011;36207;51.850;21.698;2022-12-18T07:11:38;27.40;;;12.90;;
50309;SDS011;36207;51.850;21.698;2022-12-18T07:14:04;24.60;;;12.20;;
50309;SDS011;36207;51.850;21.698;2022-12-18T07:16:31;24.10;;;11.90;;
50309;SDS011;36207;51.850;21.698;2022-12-18T07:18:57;24.40;;;12.10;;
50309;SDS011;36207;51.850;21.698;2022-12-18T07:21:23;24.40;;;12.30;;
50309;SDS011;36207;51.850;21.698;2022-12-18T07:23:50;26.00;;;12.80;;
50309;SDS011;36207;51.850;21.698;2022-12-18T07:26:18;28.80;;;13.30;;
50309;SDS011;36207;51.850;21.698;2022-12-18T07:28:46;25.90;;;12.40;;
50309;SDS011;36207;51.850;21.698;2022-12-18T07:31:14;29.40;;;13.90;;
50309;SDS011;36207;51.850;21.698;2022-12-18T07:33:43;23.60;;;12.40;;
50309;SDS011;36207;51.850;21.698;2022-12-18T07:36:10;25.00;;;12.30;;
50309;SDS011;36207;51.850;21.698;2022-12-18T07:38:37;27.70;;;13.00;;
50309;SDS011;36207;51.850;21.698;2022-12-18T07:41:10;28.00;;;12.80;;
50309;SDS011;36207;51.850;21.698;2022-12-18T07:43:38;23.20;;;12.00;;
50309;SDS011;36207;51.850;21.698;2022-12-18T07:46:07;22.40;;;11.90;;
50309;SDS011;36207;51.850;21.698;2022-12-18T07:48:34;27.00;;;12.80;;
50309;SDS011;36207;51.850;21.698;2022-12-18T07:51:01;27.90;;;13.60;;
50309;SDS011;36207;51.850;21.698;2022-12-18T07:53:30;27.20;;;12.70;;
50309;SDS011;36207;51.850;21.698;2022-12-18T07:55:57;25.10;;;12.70;;
50309;SDS011;36207;51.850;21.698;2022-12-18T07:58:24;28.50;;;14.20;;
50309;SDS011;36207;51.850;21.698;2022-12-18T08:00:51;22.40;;;11.60;;
50309;SDS011;36207;51.850;21.698;2022-12-18T08:03:18;25.60;;;11.50;;
50309;SDS011;36207;51.850;21.698;2022-12-18T08:05:45;24.60;;;12.30;;
50309;SDS011;36207;51.850;21.698;2022-12-18T08:08:11;23.70;;;12.20;;
50309;SDS011;36207;51.850;21.698;2022-12-18T08:10:38;24.40;;;12.40;;
50309;SDS011;36207;51.850;21.698;2022-12-18T08:13:04;23.90;;;12.60;;
50309;SDS011;36207;51.850;21.698;2022-12-18T08:15:31;23.60;;;11.30;;
50309;SDS011;36207;51.850;21.698;2022-12-18T08:17:57;24.80;;;12.20;;
50309;SDS011;36207;51.850;21.698;2022-12-18T08:20:23;25.80;;;12.70;;
50309;SDS011;36207;51.850;21.698;2022-12-18T08:22:49;23.90;;;12.30;;
50309;SDS011;36207;51.850;21.698;2022-12-18T08:25:16;25.70;;;12.10;;
50309;SDS011;36207;51.850;21.698;2022-12-18T08:27:42;23.30;;;12.10;;
50309;SDS011;36207;51.850;21.698;2022-12-18T08:30:08;25.20;;;12.20;;
50309;SDS011;36207;51.850;21.698;2022-12-18T08:32:36;23.50;;;12.10;;
50309;SDS011;36207;51.850;21.698;2022-12-18T08:35:02;22.70;;;12.20;;
50309;SDS011;36207;51.850;21.698;2022-12-18T08:37:28;24.30;;;12.50;;
50309;SDS011;36207;51.850;21.698;2022-12-18T08:39:55;26.40;;;13.20;;
50309;SDS011;36207;51.850;21.698;2022-12-18T08:42:21;25.60;;;12.40;;
50309;SDS011;36207;51.850;21.698;2022-12-18T08:45:06;25.20;;;12.60;;
50309;SDS011;36207;51.850;21.698;2022-12-18T08:47:33;29.20;;;14.20;;
50309;SDS011;36207;51.850;21.698;2022-12-18T08:49:59;24.80;;;13.20;;
50309;SDS011;36207;51.850;21.698;2022-12-18T08:52:25;25.80;;;13.80;;
50309;SDS011;36207;51.850;21.698;2022-12-18T08:54:52;28.60;;;13.70;;
50309;SDS011;36207;51.850;21.698;2022-12-18T08:57:18;24.70;;;13.40;;
50309;SDS011;36207;51.850;21.698;2022-12-18T08:59:44;26.10;;;13.00;;
50309;SDS011;36207;51.850;21.698;2022-12-18T09:02:11;28.20;;;13.40;;
50309;SDS011;36207;51.850;21.698;2022-12-18T09:04:37;27.60;;;13.60;;
50309;SDS011;36207;51.850;21.698;2022-12-18T09:07:05;28.30;;;13.40;;
50309;SDS011;36207;51.850;21.698;2022-12-18T09:09:31;29.40;;;15.10;;
50309;SDS011;36207;51.850;21.698;2022-12-18T09:11:58;30.00;;;14.40;;
50309;SDS011;36207;51.850;21.698;2022-12-18T09:14:24;32.30;;;14.70;;
50309;SDS011;36207;51.850;21.698;2022-12-18T09:16:50;33.60;;;15.50;;
50309;SDS011;36207;51.850;21.698;2022-12-18T09:19:17;30.20;;;15.10;;
50309;SDS011;36207;51.850;21.698;2022-12-18T09:21:43;28.70;;;14.60;;
50309;SDS011;36207;51.850;21.698;2022-12-18T09:24:11;28.10;;;13.60;;
50309;SDS011;36207;51.850;21.698;2022-12-18T09:26:39;35.60;;;15.80;;
50309;SDS011;36207;51.850;21.698;2022-12-18T09:29:06;31.60;;;14.30;;
50309;SDS011;36207;51.850;21.698;2022-12-18T09:31:33;30.00;;;14.50;;
50309;SDS011;36207;51.850;21.698;2022-12-18T09:33:59;34.00;;;15.10;;
50309;SDS011;36207;51.850;21.698;2022-12-18T09:36:25;31.40;;;15.20;;
50309;SDS011;36207;51.850;21.698;2022-12-18T09:38:52;30.20;;;14.50;;
50309;SDS011;36207;51.850;21.698;2022-12-18T09:41:33;28.80;;;14.10;;
50309;SDS011;36207;51.850;21.698;2022-12-18T09:49:37;34.60;;;15.80;;
50309;SDS011;36207;51.850;21.698;2022-12-18T09:52:14;33.70;;;15.80;;
50309;SDS011;36207;51.850;21.698;2022-12-18T09:54:55;32.50;;;15.70;;
50309;SDS011;36207;51.850;21.698;2022-12-18T09:57:26;31.50;;;14.80;;
50309;SDS011;36207;51.850;21.698;2022-12-18T10:00:01;31.10;;;15.00;;
50309;SDS011;36207;51.850;21.698;2022-12-18T10:02:34;29.20;;;14.60;;
50309;SDS011;36207;51.850;21.698;2022-12-18T10:05:05;31.70;;;14.70;;
50309;SDS011;36207;51.850;21.698;2022-12-18T10:13:02;31.50;;;15.00;;
50309;SDS011;36207;51.850;21.698;2022-12-18T10:15:47;32.90;;;15.50;;
50309;SDS011;36207;51.850;21.698;2022-12-18T10:21:39;30.60;;;15.10;;
50309;SDS011;36207;51.850;21.698;2022-12-18T10:24:31;30.20;;;15.60;;
50309;SDS011;36207;51.850;21.698;2022-12-18T10:27:24;33.90;;;16.50;;
50309;SDS011;36207;51.850;21.698;2022-12-18T10:29:52;35.80;;;16.90;;
50309;SDS011;36207;51.850;21.698;2022-12-18T10:32:29;38.10;;;17.10;;
50309;SDS011;36207;51.850;21.698;2022-12-18T10:34:57;35.90;;;15.60;;
50309;SDS011;36207;51.850;21.698;2022-12-18T10:37:25;36.30;;;16.70;;
50309;SDS011;36207;51.850;21.698;2022-12-18T10:42:35;40.60;;;17.80;;
50309;SDS011;36207;51.850;21.698;2022-12-18T10:45:03;35.40;;;17.30;;
50309;SDS011;36207;51.850;21.698;2022-12-18T10:47:59;33.60;;;16.20;;
50309;SDS011;36207;51.850;21.698;2022-12-18T10:50:29;36.10;;;17.30;;
50309;SDS011;36207;51.850;21.698;2022-12-18T10:53:00;33.80;;;16.60;;
50309;SDS011;36207;51.850;21.698;2022-12-18T10:55:33;33.30;;;15.60;;
50309;SDS011;36207;51.850;21.698;2022-12-18T10:58:18;36.00;;;17.30;;
50309;SDS011;36207;51.850;21.698;2022-12-18T11:01:30;40.30;;;19.20;;
50309;SDS011;36207;51.850;21.698;2022-12-18T11:09:03;33.30;;;15.20;;
50309;SDS011;36207;51.850;21.698;2022-12-18T11:11:31;34.90;;;16.50;;
50309;SDS011;36207;51.850;21.698;2022-12-18T11:14:05;34.20;;;16.10;;
50309;SDS011;36207;51.850;21.698;2022-12-18T11:16:43;35.10;;;16.70;;
50309;SDS011;36207;51.850;21.698;2022-12-18T11:19:17;34.20;;;16.40;;
50309;SDS011;36207;51.850;21.698;2022-12-18T11:22:00;37.30;;;16.70;;
50309;SDS011;36207;51.850;21.698;2022-12-18T11:24:33;36.30;;;17.20;;
50309;SDS011;36207;51.850;21.698;2022-12-18T11:27:01;37.10;;;16.90;;
50309;SDS011;36207;51.850;21.698;2022-12-18T11:33:03;37.60;;;17.50;;
50309;SDS011;36207;51.850;21.698;2022-12-18T11:35:10;35.70;;;17.10;;
50309;SDS011;36207;51.850;21.698;2022-12-18T11:37:51;37.00;;;17.80;;
50309;SDS011;36207;51.850;21.698;2022-12-18T11:40:42;40.40;;;18.70;;
50309;SDS011;36207;51.850;21.698;2022-12-18T11:43:15;37.10;;;16.90;;
50309;SDS011;36207;51.850;21.698;2022-12-18T11:45:55;38.70;;;18.00;;
50309;SDS011;36207;51.850;21.698;2022-12-18T11:48:30;38.80;;;18.20;;
50309;SDS011;36207;51.850;21.698;2022-12-18T11:51:20;40.30;;;17.20;;
50309;SDS011;36207;51.850;21.698;2022-12-18T11:54:09;39.70;;;18.00;;
50309;SDS011;36207;51.850;21.698;2022-12-18T11:56:42;41.20;;;18.70;;
50309;SDS011;36207;51.850;21.698;2022-12-18T12:20:05;46.20;;;19.80;;
50309;SDS011;36207;51.850;21.698;2022-12-18T12:22:24;43.70;;;18.30;;
50309;SDS011;36207;51.850;21.698;2022-12-18T12:30:22;41.90;;;18.90;;
50309;SDS011;36207;51.850;21.698;2022-12-18T12:41:26;43.10;;;19.50;;
50309;SDS011;36207;51.850;21.698;2022-12-18T12:44:16;47.10;;;21.20;;
50309;SDS011;36207;51.850;21.698;2022-12-18T12:47:01;49.00;;;21.00;;
50309;SDS011;36207;51.850;21.698;2022-12-18T12:49:36;48.90;;;22.30;;
50309;SDS011;36207;51.850;21.698;2022-12-18T12:52:13;46.30;;;21.10;;
50309;SDS011;36207;51.850;21.698;2022-12-18T12:54:43;49.60;;;21.50;;
50309;SDS011;36207;51.850;21.698;2022-12-18T13:00:15;48.90;;;21.10;;
50309;SDS011;36207;51.850;21.698;2022-12-18T13:02:56;49.80;;;21.40;;
50309;SDS011;36207;51.850;21.698;2022-12-18T13:05:39;44.00;;;19.50;;
50309;SDS011;36207;51.850;21.698;2022-12-18T13:08:25;46.10;;;20.10;;
50309;SDS011;36207;51.850;21.698;2022-12-18T13:11:27;46.10;;;20.10;;
50309;SDS011;36207;51.850;21.698;2022-12-18T13:20:02;43.20;;;19.10;;
50309;SDS011;36207;51.850;21.698;2022-12-18T13:22:33;43.90;;;19.20;;
50309;SDS011;36207;51.850;21.698;2022-12-18T13:28:07;47.20;;;20.00;;
50309;SDS011;36207;51.850;21.698;2022-12-18T13:30:50;48.00;;;20.40;;
50309;SDS011;36207;51.850;21.698;2022-12-18T13:36:02;44.10;;;20.70;;
50309;SDS011;36207;51.850;21.698;2022-12-18T13:38:35;46.80;;;19.90;;
50309;SDS011;36207;51.850;21.698;2022-12-18T13:41:23;48.20;;;20.70;;
50309;SDS011;36207;51.850;21.698;2022-12-18T13:43:52;45.10;;;19.80;;
50309;SDS011;36207;51.850;21.698;2022-12-18T13:51:52;42.30;;;19.90;;
50309;SDS011;36207;51.850;21.698;2022-12-18T13:56:59;46.30;;;20.70;;
50309;SDS011;36207;51.850;21.698;2022-12-18T13:59:33;51.50;;;21.20;;
50309;SDS011;36207;51.850;21.698;2022-12-18T14:02:09;51.00;;;20.90;;
50309;SDS011;36207;51.850;21.698;2022-12-18T14:04:38;46.20;;;20.10;;
50309;SDS011;36207;51.850;21.698;2022-12-18T14:07:13;46.60;;;20.20;;
50309;SDS011;36207;51.850;21.698;2022-12-18T14:09:45;110.10;;;40.90;;
50309;SDS011;36207;51.850;21.698;2022-12-18T14:12:22;59.90;;;22.90;;
50309;SDS011;36207;51.850;21.698;2022-12-18T14:17:53;50.30;;;20.90;;
50309;SDS011;36207;51.850;21.698;2022-12-18T14:20:31;49.50;;;21.90;;
50309;SDS011;36207;51.850;21.698;2022-12-18T14:22:58;62.20;;;26.50;;
50309;SDS011;36207;51.850;21.698;2022-12-18T14:25:26;61.70;;;25.30;;
50309;SDS011;36207;51.850;21.698;2022-12-18T14:30:37;60.20;;;25.00;;
50309;SDS011;36207;51.850;21.698;2022-12-18T14:35:36;66.50;;;27.40;;
50309;SDS011;36207;51.850;21.698;2022-12-18T14:38:24;59.20;;;24.90;;
50309;SDS011;36207;51.850;21.698;2022-12-18T14:41:06;45.70;;;18.90;;
50309;SDS011;36207;51.850;21.698;2022-12-18T14:43:45;56.40;;;23.40;;
50309;SDS011;36207;51.850;21.698;2022-12-18T14:48:59;49.10;;;21.70;;
50309;SDS011;36207;51.850;21.698;2022-12-18T14:51:59;41.50;;;18.80;;
50309;SDS011;36207;51.850;21.698;2022-12-18T14:54:29;40.20;;;17.30;;
50309;SDS011;36207;51.850;21.698;2022-12-18T14:59:23;36.20;;;16.70;;
50309;SDS011;36207;51.850;21.698;2022-12-18T15:04:38;43.90;;;18.60;;
50309;SDS011;36207;51.850;21.698;2022-12-18T15:09:40;40.10;;;18.00;;
50309;SDS011;36207;51.850;21.698;2022-12-18T15:12:26;41.50;;;16.30;;
50309;SDS011;36207;51.850;21.698;2022-12-18T15:14:59;37.50;;;16.40;;
50309;SDS011;36207;51.850;21.698;2022-12-18T15:17:26;35.80;;;16.20;;
50309;SDS011;36207;51.850;21.698;2022-12-18T15:19:53;41.10;;;16.90;;
50309;SDS011;36207;51.850;21.698;2022-12-18T15:22:30;47.20;;;19.70;;
50309;SDS011;36207;51.850;21.698;2022-12-18T15:25:02;42.00;;;18.50;;
50309;SDS011;36207;51.850;21.698;2022-12-18T15:27:47;117.70;;;38.70;;
50309;SDS011;36207;51.850;21.698;2022-12-18T15:32:40;55.50;;;23.10;;
50309;SDS011;36207;51.850;21.698;2022-12-18T15:37:39;53.00;;;22.20;;
50309;SDS011;36207;51.850;21.698;2022-12-18T15:40:06;50.30;;;21.60;;
50309;SDS011;36207;51.850;21.698;2022-12-18T15:42:34;50.40;;;21.40;;
50309;SDS011;36207;51.850;21.698;2022-12-18T15:45:19;57.00;;;23.10;;
50309;SDS011;36207;51.850;21.698;2022-12-18T15:47:45;82.70;;;32.10;;
50309;SDS011;36207;51.850;21.698;2022-12-18T15:50:12;48.00;;;22.00;;
50309;SDS011;36207;51.850;21.698;2022-12-18T15:55:14;57.60;;;23.60;;
50309;SDS011;36207;51.850;21.698;2022-12-18T15:58:02;55.40;;;24.40;;
50309;SDS011;36207;51.850;21.698;2022-12-18T16:00:29;54.00;;;24.40;;
50309;SDS011;36207;51.850;21.698;2022-12-18T16:02:55;61.20;;;24.40;;
50309;SDS011;36207;51.850;21.698;2022-12-18T16:05:22;64.10;;;25.00;;
50309;SDS011;36207;51.850;21.698;2022-12-18T16:07:49;54.50;;;22.60;;
50309;SDS011;36207;51.850;21.698;2022-12-18T16:10:16;48.10;;;21.80;;
50309;SDS011;36207;51.850;21.698;2022-12-18T16:12:42;51.00;;;22.00;;
50309;SDS011;36207;51.850;21.698;2022-12-18T16:15:10;44.00;;;19.50;;
50309;SDS011;36207;51.850;21.698;2022-12-18T16:17:40;52.50;;;23.50;;
50309;SDS011;36207;51.850;21.698;2022-12-18T16:20:11;44.70;;;19.60;;
50309;SDS011;36207;51.850;21.698;2022-12-18T16:22:40;40.50;;;17.30;;
50309;SDS011;36207;51.850;21.698;2022-12-18T16:25:16;37.90;;;16.40;;
50309;SDS011;36207;51.850;21.698;2022-12-18T16:27:47;41.30;;;18.80;;
50309;SDS011;36207;51.850;21.698;2022-12-18T16:30:25;39.20;;;16.30;;
50309;SDS011;36207;51.850;21.698;2022-12-18T16:32:54;41.50;;;18.00;;
50309;SDS011;36207;51.850;21.698;2022-12-18T16:35:22;37.20;;;16.60;;
50309;SDS011;36207;51.850;21.698;2022-12-18T16:37:50;41.50;;;17.10;;
50309;SDS011;36207;51.850;21.698;2022-12-18T16:40:16;41.10;;;17.70;;
50309;SDS011;36207;51.850;21.698;2022-12-18T16:42:43;43.30;;;18.50;;
50309;SDS011;36207;51.850;21.698;2022-12-18T16:45:13;49.30;;;18.90;;